Flight Track Log - Related Links

Times and Time Zones

All times are in EDT time to prevent confusion due to time zone crossing. See the F-GITD flight status page for this flight to view local times or setup timezone preferences in your user account.

Time Position Orientation Groundspeed Altitude Reporting Facility
EDT Latitude Longitude Course Direction KTS MPH feet Rate Location/Type
Fri 04:32:47 PM 43.5833 -70.1000 43° Northeast 530 610 35,000  Level Montreal Center
Fri 04:33:47 PM 43.7000 -69.9500 43° Northeast 520 598 35,000  Level Montreal Center
Fri 04:34:47 PM 43.7833 -69.8333 45° Northeast 510 587 35,000  Level Montreal Center
Fri 04:35:47 PM 43.9000 -69.6833 43° Northeast 510 587 35,000  Level Montreal Center
Fri 04:36:47 PM 43.9833 -69.5333 52° Northeast 520 598 35,000  Level Montreal Center
Fri 04:37:47 PM 44.0833 -69.3833 47° Northeast 510 587 35,000  Level Montreal Center
Fri 04:38:47 PM 44.1833 -69.2167 50° Northeast 510 587 35,000  Level Montreal Center
Fri 04:39:47 PM 44.2833 -69.1000 40° Northeast 510 587 35,000  Level Montreal Center
Fri 04:40:47 PM 44.3500 -68.9833 51° Northeast 510 587 35,000  Level Montreal Center
Fri 04:45:55 PM 44.9000 -68.2333 17° North 500 575 35,000 -1,525 Level Montreal Center
Fri 04:50:00 PM 45.6433 -73.3558 19° North  Level Estimated
Fri 04:51:00 PM 45.7144 -73.1989 17° North  Level Estimated
Fri 05:02:57 PM 45.4560 -73.7450 226° Southwest 169 194 1,200  Level FlightAware ADS-B
Fri 05:03:22 PM 45.4420 -73.7660 226° Southwest 174 200 2,200 2,100 Climbing FlightAware ADS-B
Fri 05:03:37 PM 45.4330 -73.7810 229° Southwest 178 205 2,600 1,600 Climbing FlightAware ADS-B
Fri 05:03:52 PM 45.4260 -73.7940 233° Southwest 181 208 3,000 1,500 Climbing FlightAware ADS-B
Fri 05:04:17 PM 45.4120 -73.8180 230° Southwest 195 224 3,600 1,050 Climbing FlightAware ADS-B
Fri 05:04:32 PM 45.4080 -73.8370 253° West 232 267 3,700 933 Climbing FlightAware ADS-B
Fri 05:05:02 PM 45.4030 -73.8840 261° West 254 292 4,300 2,143 Climbing FlightAware ADS-B
Fri 05:05:42 PM 45.4180 -73.9510 288° West 295 339 6,200 3,000 Climbing FlightAware ADS-B
Fri 05:06:12 PM 45.4550 -73.9770 334° Northwest 314 361 7,800 2,727 Climbing FlightAware ADS-B
Fri 05:06:37 PM 45.4920 -73.9710 North 339 390 8,700 2,182 Climbing FlightAware ADS-B
Fri 05:07:07 PM 45.5360 -73.9390 27° Northeast 353 406 9,800 2,229 Climbing FlightAware ADS-B
Fri 05:07:47 PM 45.5890 -73.8970 29° Northeast 365 420 11,300 1,976 Climbing FlightAware ADS-B
Fri 05:08:32 PM 45.6620 -73.8350 31° Northeast 394 453 12,600 2,047 Climbing FlightAware ADS-B
Fri 05:09:12 PM 45.7240 -73.7830 30° Northeast 413 475 14,200 2,471 Climbing FlightAware ADS-B
Fri 05:09:57 PM 45.8010 -73.7210 29° Northeast 433 498 16,100 2,753 Climbing FlightAware ADS-B
Fri 05:10:37 PM 45.8710 -73.6590 32° Northeast 437 503 18,100 2,625 Climbing FlightAware ADS-B
Fri 05:11:17 PM 45.9420 -73.5980 31° Northeast 456 525 19,600 2,259 Climbing FlightAware ADS-B
Fri 05:12:02 PM 46.0250 -73.5280 30° Northeast 469 540 21,300 2,259 Climbing FlightAware ADS-B
Fri 05:12:42 PM 46.1000 -73.4640 31° Northeast 479 551 22,800 2,175 Climbing FlightAware ADS-B
Fri 05:13:22 PM 46.1830 -73.3900 32° Northeast 496 571 24,200 1,725 Climbing FlightAware ADS-B
Fri 05:14:02 PM 46.2480 -73.2910 46° Northeast 513 590 25,100 1,271 Climbing FlightAware ADS-B
Fri 05:14:47 PM 46.3000 -73.1520 62° Northeast 534 615 26,000 1,059 Climbing FlightAware ADS-B
Fri 05:15:27 PM 46.3460 -73.0200 63° Northeast 557 641 26,600 1,129 Climbing FlightAware ADS-B
Fri 05:16:12 PM 46.3970 -72.8720 63° Northeast 574 661 27,600 1,694 Climbing FlightAware ADS-B
Fri 05:16:52 PM 46.4440 -72.7370 63° Northeast 574 661 29,000 1,976 Climbing FlightAware ADS-B
Fri 05:17:37 PM 46.4990 -72.5770 63° Northeast 575 662 30,400 1,560 Climbing FlightAware ADS-B
Fri 05:18:32 PM 46.5590 -72.3990 64° Northeast 580 667 31,600 1,440 Climbing FlightAware ADS-B
Fri 05:19:17 PM 46.6180 -72.2260 64° Northeast 582 670 32,800 1,553 Climbing FlightAware ADS-B
Fri 05:19:57 PM 46.6650 -72.0870 64° Northeast 582 670 33,800 1,482 Climbing FlightAware ADS-B
Fri 05:20:42 PM 46.7160 -71.9350 64° Northeast 581 669 34,900 847 Climbing FlightAware ADS-B
Fri 05:21:22 PM 46.7630 -71.7950 64° Northeast 578 665 35,000 75 Climbing FlightAware ADS-B
Fri 05:22:02 PM 46.8090 -71.6540 64° Northeast 577 664 35,000  Level FlightAware ADS-B
Fri 05:22:47 PM 46.8610 -71.4960 64° Northeast 574 661 35,000  Level FlightAware ADS-B
Fri 05:24:47 PM 46.9950 -71.0870 64° Northeast 577 664 35,000  Level FlightAware ADS-B
Fri 05:29:17 PM 47.2960 -70.1390 65° Northeast 565 650 35,000  Level FlightAware ADS-B
Fri 05:29:55 PM 47.3167 -69.9667 65° Northeast 560 644 35,000  Level Montreal Center
Fri 05:30:55 PM 47.4000 -69.7667 58° Northeast 560 644 35,000  Level Montreal Center
Fri 05:37:02 PM 47.7860 -68.5140 58° Northeast 565 650 35,000  Level FlightAware ADS-B
Fri 05:37:42 PM 47.8230 -68.3930 65° Northeast 565 650 35,000  Level FlightAware ADS-B
Fri 05:38:22 PM 47.8590 -68.2720 66° East 565 650 35,000  Level FlightAware ADS-B
Fri 05:39:02 PM 47.8950 -68.1510 66° East 565 650 35,000  Level FlightAware ADS-B
Fri 05:39:42 PM 47.9310 -68.0300 66° East 565 650 35,000  Level FlightAware ADS-B
Fri 05:40:32 PM 47.9760 -67.8780 66° East 565 650 35,000  Level FlightAware ADS-B
Fri 05:41:12 PM 48.0120 -67.7570 66° East 565 650 35,000  Level FlightAware ADS-B
Fri 05:41:52 PM 48.0480 -67.6350 66° East 565 650 35,000  Level FlightAware ADS-B
Fri 05:42:32 PM 48.0850 -67.5140 65° Northeast 565 650 35,000  Level FlightAware ADS-B
Fri 05:43:12 PM 48.1210 -67.3920 66° East 565 650 35,000  Level FlightAware ADS-B
Fri 05:44:02 PM 48.1660 -67.2400 66° East 565 650 35,000  Level FlightAware ADS-B
Fri 05:44:42 PM 48.2020 -67.1180 66° East 565 650 35,000  Level FlightAware ADS-B
Fri 05:45:22 PM 48.2380 -66.9970 66° East 565 650 35,000  Level FlightAware ADS-B
Fri 05:46:02 PM 48.2740 -66.8750 66° East 565 650 35,000  Level FlightAware ADS-B
Fri 05:46:36 PM 48.3500 -66.4333 66° East 560 644 35,000  Level Gander Center
Fri 05:47:10 PM 48.3833 -66.3167 67° East 560 644 35,000  Level Moncton Center
Fri 05:48:10 PM 48.4333 -66.0833 72° East 560 644 35,000  Level Moncton Center
Fri 05:49:10 PM 48.5000 -65.8833 63° Northeast 560 644 35,000  Level Moncton Center
Fri 05:50:10 PM 48.5667 -65.6667 65° Northeast 550 633 35,000  Level Moncton Center
Fri 05:51:10 PM 48.6167 -65.4667 69° East 560 644 35,000  Level Moncton Center
Fri 05:52:10 PM 48.6667 -65.2167 73° East 560 644 35,000  Level Moncton Center
Fri 05:53:10 PM 48.7167 -65.0000 71° East 550 633 35,000  Level Moncton Center
Fri 05:54:10 PM 48.7833 -64.7833 65° Northeast 560 644 35,000  Level Moncton Center
Fri 05:55:10 PM 48.8333 -64.5500 72° East 560 644 35,000  Level Moncton Center
Fri 05:56:10 PM 48.8833 -64.3167 72° East 560 644 35,000  Level Moncton Center
Fri 05:57:10 PM 48.9333 -64.1167 69° East 560 644 35,000  Level Moncton Center
Fri 05:58:10 PM 48.9833 -63.8833 72° East 560 644 35,000  Level Moncton Center
Fri 05:59:10 PM 49.0500 -63.6500 66° East 560 644 35,000  Level Moncton Center
Fri 06:00:10 PM 49.1000 -63.4500 69° East 560 644 35,000  Level Moncton Center
Fri 06:01:10 PM 49.1500 -63.2167 72° East 560 644 35,000  Level Moncton Center
Fri 06:02:10 PM 49.2000 -62.9833 72° East 560 644 35,000  Level Moncton Center
Fri 06:03:10 PM 49.2667 -62.7500 66° East 560 644 35,000  Level Moncton Center
Fri 06:03:49 PM 49.3000 -62.6167 69° East 560 644 35,000  Level Gander Center
Fri 06:04:49 PM 49.3333 -62.4167 76° East 570 656 35,000  Level Gander Center
Fri 06:05:49 PM 49.3833 -62.1833 72° East 560 644 35,000  Level Gander Center
Fri 06:06:10 PM 49.4167 -62.0833 63° Northeast 550 633 35,000  Level Moncton Center
Fri 06:07:10 PM 49.4500 -61.8667 77° East 550 633 35,000  Level Moncton Center
Fri 06:08:10 PM 49.5167 -61.6333 66° East 560 644 35,000  Level Moncton Center
Fri 06:08:49 PM 49.5333 -61.4833 80° East 560 644 35,000  Level Gander Center
Fri 06:09:49 PM 49.5833 -61.2500 72° East 560 644 35,000  Level Gander Center
Fri 06:10:10 PM 49.6000 -61.1667 73° East 560 644 35,000  Level Moncton Center
Fri 06:11:10 PM 49.6500 -60.9500 70° East 560 644 35,000  Level Moncton Center
Fri 06:12:10 PM 49.7000 -60.7167 72° East 560 644 35,000  Level Moncton Center
Fri 06:12:49 PM 49.7333 -60.5833 69° East 570 656 35,000  Level Gander Center
Fri 06:13:49 PM 49.7833 -60.3167 74° East 560 644 35,000  Level Gander Center
Fri 06:14:10 PM 49.7833 -60.2500 90° East 560 644 35,000  Level Moncton Center
Fri 06:14:49 PM 49.8167 -60.1167 69° East 560 644 35,000  Level Gander Center
Fri 06:15:49 PM 49.8667 -59.8500 74° East 560 644 35,000  Level Gander Center
Fri 06:16:10 PM 49.8833 -59.8000 63° Northeast 560 644 35,000  Level Moncton Center
Fri 06:17:10 PM 49.9333 -59.5500 73° East 560 644 35,000  Level Moncton Center
Fri 06:17:49 PM 49.9500 -59.4167 79° East 560 644 35,000  Level Gander Center
Fri 06:18:10 PM 49.9667 -59.3167 75° East 560 644 35,000  Level Moncton Center
Fri 06:18:49 PM 50.0000 -59.1833 69° East 560 644 35,000  Level Gander Center
Fri 06:19:49 PM 50.0500 -58.9333 73° East 560 644 35,000  Level Gander Center
Fri 06:20:10 PM 50.0667 -58.8667 69° East 560 644 35,000  Level Moncton Center
Fri 06:21:10 PM 50.1167 -58.6500 70° East 560 644 35,000  Level Moncton Center
Fri 06:22:10 PM 50.1833 -58.4333 64° Northeast 550 633 35,000  Level Moncton Center
Fri 06:22:49 PM 50.2167 -58.2500 74° East 560 644 35,000  Level Gander Center
Fri 06:23:10 PM 50.2333 -58.1833 69° East 550 633 35,000  Level Moncton Center
Fri 06:23:49 PM 50.2667 -58.0333 71° East 550 633 35,000  Level Gander Center
Fri 06:24:49 PM 50.3333 -57.8167 64° Northeast 550 633 35,000  Level Gander Center
Fri 06:25:49 PM 50.4000 -57.5833 66° East 560 644 35,000  Level Gander Center
Fri 06:26:49 PM 50.4333 -57.3667 76° East 550 633 35,000  Level Gander Center
Fri 06:27:10 PM 50.4667 -57.2667 62° Northeast 560 644 35,000  Level Moncton Center
Fri 06:28:10 PM 50.5167 -57.0667 68° East 550 633 35,000  Level Moncton Center
Fri 06:29:10 PM 50.5667 -56.8167 72° East 570 656 35,000  Level Moncton Center
Fri 06:29:49 PM 50.6000 -56.7000 66° East 560 644 35,000  Level Gander Center
Fri 06:30:49 PM 50.6667 -56.4500 67° East 560 644 35,000  Level Gander Center
Fri 06:31:49 PM 50.7167 -56.2333 70° East 560 644 35,000  Level Gander Center
Fri 06:32:49 PM 50.7667 -55.9833 72° East 570 656 35,000  Level Gander Center
Fri 06:33:49 PM 50.8167 -55.7500 71° East 570 656 35,000  Level Gander Center
Fri 06:34:49 PM 50.8833 -55.5000 67° East 560 644 35,000  Level Gander Center
Fri 06:35:36 PM 50.9167 -55.3333 72° East 570 656 35,000  Level Gander Center
Fri 06:37:10 PM 51.0167 -54.9667 66° East 560 644 35,000  Level Moncton Center
Fri 06:37:36 PM 51.0333 -54.8667 75° East 560 644 35,000  Level Gander Center
Fri 06:38:10 PM 51.0500 -54.7333 79° East 560 644 35,000  Level Moncton Center
Fri 06:39:10 PM 51.1000 -54.4833 72° East 550 633 35,000  Level Moncton Center
Fri 06:39:49 PM 51.1333 -54.3500 68° East 560 644 35,000 558 Level Gander Center
Fri 06:40:36 PM 51.1667 -54.1833 72° East 560 644 35,800 1,121 Climbing Gander Center
Fri 06:41:36 PM 51.2333 -53.9333 67° East 560 644 37,000 766 Climbing Gander Center
Fri 06:42:10 PM 51.2500 -53.8167 77° East 560 644 37,000  Level Moncton Center
Fri 06:43:10 PM 51.3000 -53.5833 71° East 550 633 37,000  Level Moncton Center
Fri 06:44:10 PM 51.3500 -53.3333 72° East 550 633 37,000  Level Moncton Center
Fri 06:44:36 PM 51.3667 -53.2333 75° East 540 621 37,000  Level Gander Center
Fri 06:45:36 PM 51.4167 -53.0167 70° East 550 633 37,000  Level Gander Center
Fri 06:46:36 PM 51.4667 -52.7667 72° East 550 633 37,000  Level Gander Center
Fri 06:47:36 PM 51.5167 -52.5333 71° East 550 633 37,000  Level Gander Center
Fri 06:48:36 PM 51.5667 -52.3167 70° East 540 621 37,000  Level Gander Center
Fri 06:49:36 PM 51.6000 -52.0833 77° East 550 633 37,000  Level Gander Center
Fri 06:50:36 PM 51.6500 -51.8333 72° East 560 644 37,000  Level Gander Center
Fri 06:51:36 PM 51.6833 -51.5833 78° East 550 633 37,000  Level Gander Center
Fri 06:52:36 PM 51.7167 -51.3500 77° East 550 633 37,000  Level Gander Center
Fri 06:53:36 PM 51.7667 -51.1333 69° East 550 633 37,000  Level Gander Center
Fri 06:54:36 PM 51.8000 -50.9000 77° East 550 633 37,000  Level Gander Center
Fri 06:55:36 PM 51.8500 -50.6500 72° East 550 633 37,000  Level Gander Center
Fri 06:56:36 PM 51.9000 -50.4167 71° East 550 633 37,000  Level Gander Center
Fri 06:57:36 PM 51.9167 -50.1667 84° East 550 633 37,000  Level Gander Center
Fri 06:59:00 PM 52.0182 -49.8739 77° East  Level FlightAware Approximate
Fri 07:06:00 PM 52.2790 -47.9436 77° East  Level FlightAware Approximate
Fri 07:07:00 PM 52.3137 -47.6661 78° East  Level FlightAware Approximate
Fri 07:07:15 PM 52.0000 -50.0000 77° East 554 638 37,000  Level ETMS Enhanced Traffic Management System
Fri 07:08:00 PM 52.3477 -47.3881 79° East  Level FlightAware Approximate
Fri 07:09:00 PM 52.3810 -47.1097 79° East  Level FlightAware Approximate
Fri 07:10:00 PM 52.4137 -46.8309 79° East  Level FlightAware Approximate
Fri 07:11:00 PM 52.4458 -46.5517 79° East  Level FlightAware Approximate
Fri 07:12:00 PM 52.4772 -46.2720 79° East  Level FlightAware Approximate
Fri 07:13:00 PM 52.4735 -46.3051 80° East 554 638 37,000  Level FlightAware Transoceanic
Fri 07:14:00 PM 52.5009 -46.0561 80° East 554 638 37,000  Level FlightAware Transoceanic
Fri 07:15:00 PM 52.5279 -45.8068 80° East 554 638 37,000  Level FlightAware Transoceanic
Fri 07:16:00 PM 52.5542 -45.5572 80° East 554 638 37,000  Level FlightAware Transoceanic
Fri 07:17:00 PM 52.5801 -45.3072 80° East 554 638 37,000  Level FlightAware Transoceanic
Fri 07:18:00 PM 52.6054 -45.0570 81° East 554 638 37,000  Level FlightAware Transoceanic
Fri 07:19:00 PM 52.6302 -44.8065 81° East 554 638 37,000  Level FlightAware Transoceanic
Fri 07:20:00 PM 52.6545 -44.5557 81° East 554 638 37,000  Level FlightAware Transoceanic
Fri 07:21:00 PM 52.6783 -44.3047 81° East 554 638 37,000  Level FlightAware Transoceanic
Fri 07:22:00 PM 52.7015 -44.0533 81° East 554 638 37,000  Level FlightAware Transoceanic
Fri 07:23:00 PM 52.7242 -43.8017 82° East 554 638 37,000  Level FlightAware Transoceanic
Fri 07:24:00 PM 52.7463 -43.5499 82° East 554 638 37,000  Level FlightAware Transoceanic
Fri 07:25:00 PM 52.7679 -43.2978 82° East 554 638 37,000  Level FlightAware Transoceanic
Fri 07:26:00 PM 52.7890 -43.0454 82° East 554 638 37,000  Level FlightAware Transoceanic
Fri 07:27:00 PM 52.8096 -42.7928 82° East 554 638 37,000  Level FlightAware Transoceanic
Fri 07:28:00 PM 52.8296 -42.5400 83° East 554 638 37,000  Level FlightAware Transoceanic
Fri 07:29:00 PM 52.8491 -42.2869 83° East 554 638 37,000  Level FlightAware Transoceanic
Fri 07:30:00 PM 52.8680 -42.0336 83° East 554 638 37,000  Level FlightAware Transoceanic
Fri 07:31:00 PM 52.8864 -41.7801 83° East 554 638 37,000  Level FlightAware Transoceanic
Fri 07:32:00 PM 52.9043 -41.5264 83° East 554 638 37,000  Level FlightAware Transoceanic
Fri 07:33:00 PM 52.9216 -41.2725 84° East 554 638 37,000  Level FlightAware Transoceanic
Fri 07:34:00 PM 52.9383 -41.0184 84° East 554 638 37,000  Level FlightAware Transoceanic
Fri 07:35:00 PM 52.9546 -40.7640 84° East 554 638 37,000  Level FlightAware Transoceanic
Fri 07:36:00 PM 52.9703 -40.5095 84° East 554 638 37,000  Level FlightAware Transoceanic
Fri 07:37:00 PM 52.9854 -40.2549 84° East 554 638 37,000  Level FlightAware Transoceanic
Fri 07:38:00 PM 53.0018 -39.9683 84° East  Level FlightAware Approximate
Fri 07:39:00 PM 53.0089 -39.9381 76° East  Level FlightAware Approximate
Fri 07:40:00 PM 53.0490 -39.6579 77° East  Level FlightAware Approximate
Fri 07:41:00 PM 53.0885 -39.3771 77° East  Level FlightAware Approximate
Fri 07:41:00 PM 53.0000 -40.0000 76° East 542 624 37,000  Level ETMS Enhanced Traffic Management System
Fri 07:42:00 PM 53.1272 -39.0959 77° East  Level FlightAware Approximate
Fri 07:43:00 PM 53.1654 -38.8141 77° East  Level FlightAware Approximate
Fri 07:44:00 PM 53.2028 -38.5318 77° East  Level FlightAware Approximate
Fri 07:45:00 PM 53.2396 -38.2490 78° East  Level FlightAware Approximate
Fri 07:46:00 PM 53.2757 -37.9658 78° East  Level FlightAware Approximate
Fri 07:47:00 PM 53.2972 -37.7940 78° East 542 624 37,000  Level FlightAware Transoceanic
Fri 07:48:00 PM 53.3277 -37.5471 78° East 542 624 37,000  Level FlightAware Transoceanic
Fri 07:49:00 PM 53.3577 -37.2998 79° East 542 624 37,000  Level FlightAware Transoceanic
Fri 07:50:00 PM 53.3872 -37.0521 79° East 542 624 37,000  Level FlightAware Transoceanic
Fri 07:51:00 PM 53.4161 -36.8041 79° East 542 624 37,000  Level FlightAware Transoceanic
Fri 07:52:00 PM 53.4446 -36.5558 79° East 542 624 37,000  Level FlightAware Transoceanic
Fri 07:53:00 PM 53.4725 -36.3071 79° East 542 624 37,000  Level FlightAware Transoceanic
Fri 07:54:00 PM 53.4999 -36.0582 80° East 542 624 37,000  Level FlightAware Transoceanic
Fri 07:55:00 PM 53.5268 -35.8089 80° East 542 624 37,000  Level FlightAware Transoceanic
Fri 07:56:00 PM 53.5532 -35.5593 80° East 542 624 37,000  Level FlightAware Transoceanic
Fri 07:57:00 PM 53.5790 -35.3093 80° East 542 624 37,000  Level FlightAware Transoceanic
Fri 07:58:00 PM 53.6044 -35.0591 80° East 542 624 37,000  Level FlightAware Transoceanic
Fri 07:59:00 PM 53.6292 -34.8086 81° East 542 624 37,000  Level FlightAware Transoceanic
Fri 08:00:00 PM 53.6535 -34.5578 81° East 542 624 37,000  Level FlightAware Transoceanic
Fri 08:01:00 PM 53.6772 -34.3067 81° East 542 624 37,000  Level FlightAware Transoceanic
Fri 08:02:00 PM 53.7005 -34.0553 81° East 542 624 37,000  Level FlightAware Transoceanic
Fri 08:03:00 PM 53.7232 -33.8037 81° East 542 624 37,000  Level FlightAware Transoceanic
Fri 08:04:00 PM 53.7454 -33.5518 82° East 542 624 37,000  Level FlightAware Transoceanic
Fri 08:05:00 PM 53.7670 -33.2996 82° East 542 624 37,000  Level FlightAware Transoceanic
Fri 08:06:00 PM 53.7882 -33.0471 82° East 542 624 37,000  Level FlightAware Transoceanic
Fri 08:07:00 PM 53.8087 -32.7944 82° East 542 624 37,000  Level FlightAware Transoceanic
Fri 08:08:00 PM 53.8288 -32.5415 82° East 542 624 37,000  Level FlightAware Transoceanic
Fri 08:09:00 PM 53.8483 -32.2883 83° East 542 624 37,000  Level FlightAware Transoceanic
Fri 08:10:00 PM 53.8673 -32.0349 83° East 542 624 37,000  Level FlightAware Transoceanic
Fri 08:11:00 PM 53.8858 -31.7813 83° East 542 624 37,000  Level FlightAware Transoceanic
Fri 08:12:00 PM 53.9037 -31.5274 83° East 542 624 37,000  Level FlightAware Transoceanic
Fri 08:13:00 PM 53.9211 -31.2734 83° East 542 624 37,000  Level FlightAware Transoceanic
Fri 08:14:00 PM 53.9380 -31.0191 84° East 542 624 37,000  Level FlightAware Transoceanic
Fri 08:15:00 PM 53.9543 -30.7646 84° East 542 624 37,000  Level FlightAware Transoceanic
Fri 08:16:00 PM 53.9701 -30.5099 84° East 542 624 37,000  Level FlightAware Transoceanic
Fri 08:17:00 PM 53.9853 -30.2551 84° East 542 624 37,000  Level FlightAware Transoceanic
Fri 08:18:00 PM 54.0022 -29.9618 84° East  Level FlightAware Approximate
Fri 08:19:00 PM 54.0032 -29.9233 86° East  Level FlightAware Approximate
Fri 08:20:00 PM 54.0149 -29.6292 86° East  Level FlightAware Approximate
Fri 08:21:00 PM 54.0258 -29.3349 86° East  Level FlightAware Approximate
Fri 08:21:41 PM 54.0000 -30.0000 86° East 542 624 37,000  Level ETMS Enhanced Traffic Management System
Fri 08:22:00 PM 54.0361 -29.0404 86° East  Level FlightAware Approximate
Fri 08:23:00 PM 54.0456 -28.7459 87° East  Level FlightAware Approximate
Fri 08:24:00 PM 54.0544 -28.4511 87° East  Level FlightAware Approximate
Fri 08:25:00 PM 54.0625 -28.1563 87° East  Level FlightAware Approximate
Fri 08:26:00 PM 54.0699 -27.8613 87° East  Level FlightAware Approximate
Fri 08:27:00 PM 54.0737 -27.6955 88° East 542 624 37,000  Level FlightAware Transoceanic
Fri 08:28:00 PM 54.0792 -27.4390 88° East 542 624 37,000  Level FlightAware Transoceanic
Fri 08:29:00 PM 54.0841 -27.1824 88° East 542 624 37,000  Level FlightAware Transoceanic
Fri 08:30:00 PM 54.0884 -26.9258 88° East 542 624 37,000  Level FlightAware Transoceanic
Fri 08:31:00 PM 54.0923 -26.6691 89° East 542 624 37,000  Level FlightAware Transoceanic
Fri 08:32:00 PM 54.0955 -26.4124 89° East 542 624 37,000  Level FlightAware Transoceanic
Fri 08:33:00 PM 54.0983 -26.1557 89° East 542 624 37,000  Level FlightAware Transoceanic
Fri 08:34:00 PM 54.1005 -25.8989 89° East 542 624 37,000  Level FlightAware Transoceanic
Fri 08:35:00 PM 54.1021 -25.6421 89° East 542 624 37,000  Level FlightAware Transoceanic
Fri 08:36:00 PM 54.1032 -25.3853 90° East 542 624 37,000  Level FlightAware Transoceanic
Fri 08:37:00 PM 54.1037 -25.1284 90° East 542 624 37,000  Level FlightAware Transoceanic
Fri 08:38:00 PM 54.1037 -24.8716 90° East 542 624 37,000  Level FlightAware Transoceanic
Fri 08:39:00 PM 54.1032 -24.6147 90° East 542 624 37,000  Level FlightAware Transoceanic
Fri 08:40:00 PM 54.1021 -24.3579 91° East 542 624 37,000  Level FlightAware Transoceanic
Fri 08:41:00 PM 54.1005 -24.1011 91° East 542 624 37,000  Level FlightAware Transoceanic
Fri 08:42:00 PM 54.0983 -23.8443 91° East 542 624 37,000  Level FlightAware Transoceanic
Fri 08:43:00 PM 54.0955 -23.5876 91° East 542 624 37,000  Level FlightAware Transoceanic
Fri 08:44:00 PM 54.0923 -23.3309 91° East 542 624 37,000  Level FlightAware Transoceanic
Fri 08:45:00 PM 54.0884 -23.0742 92° East 542 624 37,000  Level FlightAware Transoceanic
Fri 08:46:00 PM 54.0841 -22.8176 92° East 542 624 37,000  Level FlightAware Transoceanic
Fri 08:47:00 PM 54.0792 -22.5610 92° East 542 624 37,000  Level FlightAware Transoceanic
Fri 08:48:00 PM 54.0737 -22.3045 92° East 542 624 37,000  Level FlightAware Transoceanic
Fri 08:49:00 PM 54.0677 -22.0481 92° East 542 624 37,000  Level FlightAware Transoceanic
Fri 08:50:00 PM 54.0611 -21.7917 93° East 542 624 37,000  Level FlightAware Transoceanic
Fri 08:51:00 PM 54.0540 -21.5355 93° East 542 624 37,000  Level FlightAware Transoceanic
Fri 08:52:00 PM 54.0464 -21.2793 93° East 542 624 37,000  Level FlightAware Transoceanic
Fri 08:53:00 PM 54.0382 -21.0232 93° East 542 624 37,000  Level FlightAware Transoceanic
Fri 08:54:00 PM 54.0294 -20.7672 93° East 542 624 37,000  Level FlightAware Transoceanic
Fri 08:55:00 PM 54.0202 -20.5114 94° East 542 624 37,000  Level FlightAware Transoceanic
Fri 08:56:00 PM 54.0104 -20.2556 94° East 542 624 37,000  Level FlightAware Transoceanic
Fri 08:57:00 PM 53.9984 -19.9615 94° East  Level FlightAware Approximate
Fri 08:58:00 PM 53.9853 -19.9271 109° East  Level FlightAware Approximate
Fri 08:59:00 PM 53.9287 -19.6488 109° East  Level FlightAware Approximate
Fri 09:00:00 PM 53.8715 -19.3713 109° East  Level FlightAware Approximate
Fri 09:01:00 PM 53.8136 -19.0945 109° East  Level FlightAware Approximate
Fri 09:02:00 PM 53.7551 -18.8185 110° East  Level FlightAware Approximate
Fri 09:03:00 PM 53.6975 -18.5423 109° East  Level FlightAware Approximate
Fri 09:04:00 PM 53.6402 -18.2664 109° East  Level FlightAware Approximate
Fri 09:05:00 PM 53.5822 -17.9912 109° East  Level FlightAware Approximate
Fri 09:06:00 PM 53.5236 -17.7168 110° East  Level FlightAware Approximate
Fri 09:07:00 PM 53.4644 -17.4431 110° East  Level FlightAware Approximate
Fri 09:08:00 PM 53.4045 -17.1702 110° East  Level FlightAware Approximate
Fri 09:09:00 PM 53.3441 -16.8981 110° East  Level FlightAware Approximate
Fri 09:10:00 PM 53.2830 -16.6267 111° Southeast  Level FlightAware Approximate
Fri 09:11:00 PM 53.2213 -16.3561 111° Southeast  Level FlightAware Approximate
Fri 09:12:00 PM 53.1590 -16.0863 111° Southeast  Level FlightAware Approximate
Fri 09:13:00 PM 53.0960 -15.8173 111° Southeast  Level FlightAware Approximate
Fri 09:14:00 PM 53.0325 -15.5491 111° Southeast  Level FlightAware Approximate
Fri 09:15:00 PM 52.9684 -15.2817 112° Southeast  Level FlightAware Approximate
Fri 09:16:00 PM 52.9037 -15.0150 112° Southeast  Level FlightAware Approximate
Fri 09:17:00 PM 52.8387 -14.7490 112° Southeast  Level FlightAware Approximate
Fri 09:18:00 PM 52.7732 -14.4837 112° Southeast  Level FlightAware Approximate
Fri 09:19:00 PM 52.7070 -14.2192 112° Southeast  Level FlightAware Approximate
Fri 09:20:00 PM 52.6403 -13.9555 113° Southeast  Level FlightAware Approximate
Fri 09:21:00 PM 52.5730 -13.6926 113° Southeast  Level FlightAware Approximate
Fri 09:22:00 PM 52.5051 -13.4305 113° Southeast  Level FlightAware Approximate
Fri 09:23:00 PM 52.4366 -13.1693 113° Southeast  Level FlightAware Approximate
Fri 09:24:00 PM 52.3674 -12.9090 113° Southeast  Level FlightAware Approximate
Fri 09:25:00 PM 52.2976 -12.6496 114° Southeast  Level FlightAware Approximate
Fri 09:26:00 PM 52.2272 -12.3909 114° Southeast  Level FlightAware Approximate
Fri 09:27:00 PM 52.1563 -12.1330 114° Southeast  Level FlightAware Approximate
Fri 09:28:00 PM 52.0849 -11.8760 114° Southeast  Level FlightAware Approximate
Fri 09:28:17 PM 52.6840 -13.3570 114° Southeast 485 558 37,000  Level FlightAware ADS-B
Fri 09:28:57 PM 52.6390 -13.2080 116° Southeast 489 563 37,000  Level FlightAware ADS-B
Fri 09:29:00 PM 52.0128 -11.6198 114° Southeast  Level FlightAware Approximate
Fri 09:29:42 PM 52.5930 -13.0470 115° Southeast 489 563 37,000  Level FlightAware ADS-B
Fri 09:30:22 PM 52.5550 -12.9140 115° Southeast 488 562 37,000  Level FlightAware ADS-B
Fri 09:31:07 PM 52.5140 -12.7710 115° Southeast 488 562 37,000  Level FlightAware ADS-B
Fri 09:31:47 PM 52.4740 -12.6330 115° Southeast 488 562 37,000  Level FlightAware ADS-B
Fri 09:32:37 PM 52.4260 -12.4680 115° Southeast 488 562 37,000  Level FlightAware ADS-B
Fri 09:33:17 PM 52.3850 -12.3320 116° Southeast 489 563 37,000  Level FlightAware ADS-B
Fri 09:34:07 PM 52.3340 -12.1590 116° Southeast 490 564 37,000  Level FlightAware ADS-B
Fri 09:34:47 PM 52.2970 -12.0350 116° Southeast 487 560 37,000  Level FlightAware ADS-B
Fri 09:35:27 PM 52.2570 -11.9010 116° Southeast 488 562 37,000  Level FlightAware ADS-B
Fri 09:36:07 PM 52.2170 -11.7680 116° Southeast 488 562 37,000  Level FlightAware ADS-B
Fri 09:36:52 PM 52.1700 -11.6120 116° Southeast 487 560 37,000  Level FlightAware ADS-B
Fri 09:37:37 PM 52.1260 -11.4690 117° Southeast 487 560 37,000  Level FlightAware ADS-B
Fri 09:38:17 PM 52.0840 -11.3330 117° Southeast 487 560 37,000  Level FlightAware ADS-B
Fri 09:39:02 PM 52.0410 -11.1920 116° Southeast 487 560 37,000  Level FlightAware ADS-B
Fri 09:39:42 PM 51.9980 -11.0530 117° Southeast 487 560 37,000  Level FlightAware ADS-B
Fri 09:40:22 PM 51.9580 -10.9260 117° Southeast 487 560 37,000  Level FlightAware ADS-B
Fri 09:41:07 PM 51.9120 -10.7810 117° Southeast 491 565 37,000  Level FlightAware ADS-B
Fri 09:41:52 PM 51.8670 -10.6360 117° Southeast 492 566 37,000  Level FlightAware ADS-B
Fri 09:42:47 PM 51.8070 -10.4490 117° Southeast 493 567 37,000  Level FlightAware ADS-B
Fri 09:43:27 PM 51.7640 -10.3150 117° Southeast 493 567 37,000  Level FlightAware ADS-B
Fri 09:44:07 PM 51.7220 -10.1840 117° Southeast 492 566 37,000  Level FlightAware ADS-B
Fri 09:44:52 PM 51.6750 -10.0370 117° Southeast 492 566 37,000  Level FlightAware ADS-B
Fri 09:45:32 PM 51.6340 -9.9110 118° Southeast 491 565 37,000  Level FlightAware ADS-B
Fri 09:46:27 PM 51.5850 -9.7630 118° Southeast 489 563 37,000  Level FlightAware ADS-B
Fri 09:47:12 PM 51.5290 -9.5930 118° Southeast 488 562 37,000  Level FlightAware ADS-B
Fri 09:47:52 PM 51.4860 -9.4620 118° Southeast 488 562 37,000  Level FlightAware ADS-B
Fri 09:48:32 PM 51.4440 -9.3370 118° Southeast 487 560 37,000  Level FlightAware ADS-B
Fri 09:49:17 PM 51.3970 -9.1950 118° Southeast 486 559 37,000  Level FlightAware ADS-B
Fri 09:49:57 PM 51.3520 -9.0630 119° Southeast 483 556 37,000 -1,574 Level FlightAware ADS-B
Fri 09:50:18 PM 51.3284 -8.9931 119° Southeast 462 532 35,400 -2,308 Descending FlightAware UK
Fri 09:50:36 PM 51.3091 -8.9362 118° Southeast 462 532 35,500 5,053 Climbing FlightAware UK
Fri 09:50:37 PM 51.3130 -8.9480 118° Southeast 484 557 37,000  Climbing FlightAware ADS-B
Fri 09:50:54 PM 51.2899 -8.8793 118° Southeast 462 532 35,500 -2,743 Descending FlightAware UK
Fri 09:51:12 PM 51.2705 -8.8226 119° Southeast 462 532 35,400 3,214 Descending FlightAware UK
Fri 09:51:22 PM 51.2650 -8.8060 119° Southeast 485 558 37,000 167 Climbing FlightAware ADS-B
Fri 09:51:48 PM 51.2318 -8.7088 119° Southeast 462 532 35,500  Descending FlightAware UK
Fri 09:52:02 PM 51.2220 -8.6790 119° Southeast 486 559 37,000  Climbing FlightAware ADS-B
Fri 09:52:06 PM 51.2123 -8.6519 119° Southeast 462 532 35,500 -5,625 Descending FlightAware UK
Fri 09:52:18 PM 51.1993 -8.6140 119° Southeast 462 532 35,500  Level FlightAware UK
Fri 09:52:36 PM 51.1797 -8.5571 119° Southeast 464 534 35,500 3,103 Level FlightAware UK
Fri 09:52:47 PM 51.1730 -8.5370 119° Southeast 487 560 37,000  Climbing FlightAware ADS-B
Fri 09:53:06 PM 51.1469 -8.4623 119° Southeast 464 534 35,500 -2,432 Descending FlightAware UK
Fri 09:53:24 PM 51.1271 -8.4054 119° Southeast 464 534 35,500 4,286 Level FlightAware UK
Fri 09:53:27 PM 51.1290 -8.4090 119° Southeast 488 562 37,000  Climbing FlightAware ADS-B
Fri 09:53:42 PM 51.1074 -8.3485 119° Southeast 466 536 35,500 -2,727 Descending FlightAware UK
Fri 09:54:00 PM 51.0878 -8.2915 119° Southeast 466 536 35,500 3,000 Level FlightAware UK
Fri 09:54:12 PM 51.0820 -8.2650 119° Southeast 491 565 37,000  Climbing FlightAware ADS-B
Fri 09:54:30 PM 51.0624 -8.1897 119° Southeast 466 536 35,500 -2,500 Descending FlightAware UK
Fri 09:54:48 PM 51.0517 -8.1271 105° East 464 534 35,500 4,091 Level FlightAware UK
Fri 09:54:52 PM 51.0530 -8.1260 105° East 491 565 37,000  Climbing FlightAware ADS-B
Fri 09:55:12 PM 51.0372 -8.0436 105° East 466 536 35,500 -2,368 Descending FlightAware UK
Fri 09:55:30 PM 51.0264 -7.9811 105° East 466 536 35,500 4,500 Level FlightAware UK
Fri 09:55:32 PM 51.0290 -7.9900 105° East 492 566 37,000  Climbing FlightAware ADS-B
Fri 09:55:48 PM 51.0156 -7.9185 105° East 468 539 35,500 -2,647 Descending FlightAware UK
Fri 09:56:06 PM 51.0047 -7.8562 106° East 468 539 35,500 3,103 Level FlightAware UK
Fri 09:56:17 PM 51.0020 -7.8370 106° East 491 565 37,000  Climbing FlightAware ADS-B
Fri 09:56:42 PM 50.9827 -7.7318 106° East 466 536 35,500  Descending FlightAware UK
Fri 09:56:57 PM 50.9780 -7.7000 106° East 489 563 37,000  Climbing FlightAware ADS-B
Fri 09:57:00 PM 50.9717 -7.6690 106° East 464 534 35,500 -6,000 Descending FlightAware UK
Fri 09:57:12 PM 50.9642 -7.6278 106° East 466 536 35,500  Level FlightAware UK
Fri 09:57:30 PM 50.9530 -7.5659 106° East 466 536 35,500 3,000 Level FlightAware UK
Fri 09:57:42 PM 50.9500 -7.5440 106° East 488 562 37,000  Climbing FlightAware ADS-B
Fri 09:58:00 PM 50.9346 -7.4636 106° East 466 536 35,500 -2,500 Descending FlightAware UK
Fri 09:58:18 PM 50.9232 -7.4012 106° East 466 536 35,500 4,091 Level FlightAware UK
Fri 09:58:22 PM 50.9250 -7.4070 106° East 488 562 37,000  Climbing FlightAware ADS-B
Fri 09:58:42 PM 50.9082 -7.3191 106° East 466 536 35,500 -2,368 Descending FlightAware UK
Fri 09:59:00 PM 50.8969 -7.2575 106° East 466 536 35,500 4,500 Level FlightAware UK
Fri 09:59:02 PM 50.9000 -7.2670 106° East 486 559 37,000  Climbing FlightAware ADS-B
Fri 09:59:18 PM 50.8858 -7.1959 106° East 464 534 35,500 -2,647 Descending FlightAware UK
Fri 09:59:36 PM 50.8745 -7.1344 106° East 464 534 35,500 3,103 Level FlightAware UK
Fri 09:59:47 PM 50.8720 -7.1140 106° East 486 559 37,000  Climbing FlightAware ADS-B
Fri 10:00:06 PM 50.8555 -7.0320 106° East 466 536 35,500 -2,432 Descending FlightAware UK
Fri 10:00:24 PM 50.8441 -6.9706 106° East 464 534 35,500 4,286 Level FlightAware UK
Fri 10:00:27 PM 50.8470 -6.9800 106° East 485 558 37,000  Climbing FlightAware ADS-B
Fri 10:00:42 PM 50.8330 -6.9091 106° East 464 534 35,500 -2,727 Descending FlightAware UK
Fri 10:01:00 PM 50.8217 -6.8477 106° East 462 532 35,500 3,600 Level FlightAware UK
Fri 10:01:07 PM 50.8210 -6.8420 106° East 485 558 37,000  Climbing FlightAware ADS-B
Fri 10:01:24 PM 50.8063 -6.7653 106° East 464 534 35,500  Descending FlightAware UK
Fri 10:01:52 PM 50.7930 -6.6890 107° East 486 559 37,000  Climbing FlightAware ADS-B
Fri 10:01:54 PM 50.7870 -6.6631 107° East 462 532 35,500 -4,500 Descending FlightAware UK
Fri 10:02:12 PM 50.7756 -6.6017 107° East 462 532 35,500 2,368 Level FlightAware UK
Fri 10:02:32 PM 50.7670 -6.5500 107° East 487 560 37,000  Climbing FlightAware ADS-B
Fri 10:02:36 PM 50.7601 -6.5199 107° East 464 534 35,500 -5,625 Descending FlightAware UK
Fri 10:02:48 PM 50.7524 -6.4789 107° East 464 534 35,500  Level FlightAware UK
Fri 10:03:06 PM 50.7407 -6.4176 107° East 462 532 35,500 3,103 Level FlightAware UK
Fri 10:03:17 PM 50.7380 -6.4010 107° East 486 559 37,000  Climbing FlightAware ADS-B
Fri 10:03:36 PM 50.7212 -6.3154 107° East 464 534 35,500 -2,432 Descending FlightAware UK
Fri 10:03:54 PM 50.7095 -6.2541 107° East 464 534 35,500 4,286 Level FlightAware UK
Fri 10:03:57 PM 50.7110 -6.2580 107° East 486 559 37,000  Climbing FlightAware ADS-B
Fri 10:04:12 PM 50.6979 -6.1929 107° East 466 536 35,500 -2,727 Descending FlightAware UK
Fri 10:04:30 PM 50.6861 -6.1317 107° East 466 536 35,500 3,000 Level FlightAware UK
Fri 10:04:42 PM 50.6820 -6.1080 107° East 488 562 37,000  Climbing FlightAware ADS-B
Fri 10:05:00 PM 50.6663 -6.0298 107° East 468 539 35,500 -2,500 Descending FlightAware UK
Fri 10:05:18 PM 50.6547 -5.9686 107° East 466 536 35,500 4,091 Level FlightAware UK
Fri 10:05:22 PM 50.6540 -5.9670 107° East 487 560 37,000  Climbing FlightAware ADS-B
Fri 10:05:49 PM 50.6348 -5.8656 107° East 466 536 35,500  Descending FlightAware UK
Fri 10:06:02 PM 50.6280 -5.8320 107° East 485 558 37,000  Climbing FlightAware ADS-B
Fri 10:06:07 PM 50.6228 -5.8051 107° East 466 536 35,500 -3,214 Descending FlightAware UK
Fri 10:06:30 PM 50.6070 -5.7252 107° East 462 532 35,500 2,250 Level FlightAware UK
Fri 10:06:47 PM 50.5980 -5.6790 107° East 483 556 37,000 -316 Climbing FlightAware ADS-B
Fri 10:06:49 PM 50.5948 -5.6635 107° East 460 529 35,400 -4,800 Descending FlightAware UK
Fri 10:07:07 PM 50.5829 -5.6040 107° East 460 529 35,400 3,429 Level FlightAware UK
Fri 10:07:17 PM 50.5770 -5.5750 107° East 484 557 37,000 333 Climbing FlightAware ADS-B
Fri 10:07:25 PM 50.5707 -5.5431 107° East 462 532 35,500 -4,500 Descending FlightAware UK
Fri 10:07:37 PM 50.5628 -5.5030 107° East 462 532 35,500  Level FlightAware UK
Fri 10:07:55 PM 50.5507 -5.4428 108° East 462 532 35,500 3,600 Level FlightAware UK
Fri 10:08:02 PM 50.5470 -5.4240 108° East 484 557 37,000  Climbing FlightAware ADS-B
Fri 10:08:13 PM 50.5385 -5.3826 108° East 462 532 35,500 -5,294 Descending FlightAware UK
Fri 10:08:19 PM 50.5345 -5.3625 108° East 462 532 35,500  Level FlightAware UK
Fri 10:08:37 PM 50.5222 -5.3017 108° East 464 534 35,500 2,727 Level FlightAware UK
Fri 10:08:52 PM 50.5150 -5.2690 108° East 484 557 37,000  Climbing FlightAware ADS-B
Fri 10:08:55 PM 50.5101 -5.2414 108° East 464 534 35,500 -6,000 Descending FlightAware UK
Fri 10:09:07 PM 50.5020 -5.2013 108° East 464 534 35,500  Level FlightAware UK
Fri 10:09:25 PM 50.4899 -5.1411 108° East 464 534 35,500 3,600 Level FlightAware UK
Fri 10:09:32 PM 50.4880 -5.1330 108° East 484 557 37,000  Climbing FlightAware ADS-B
Fri 10:09:49 PM 50.4735 -5.0611 108° East 464 534 35,500 -2,195 Descending FlightAware UK
Fri 10:10:13 PM 50.4569 -4.9806 108° East 464 534 35,500 3,214 Level FlightAware UK
Fri 10:10:17 PM 50.4570 -4.9840 108° East 482 555 37,000 4,286 Climbing FlightAware ADS-B
Fri 10:10:34 PM 50.4426 -4.9126 108° East 482 555 37,000 -2,813 Level FlightAware ADS-B
Fri 10:10:49 PM 50.4325 -4.8625 108° East 464 534 35,500 -2,727 Descending FlightAware UK
Fri 10:11:07 PM 50.4200 -4.8022 108° East 466 536 35,500 3,600 Level FlightAware UK
Fri 10:11:14 PM 50.4148 -4.7786 108° East 483 556 37,000  Climbing FlightAware ADS-B
Fri 10:11:31 PM 50.4035 -4.7227 108° East 466 536 35,500 -2,571 Descending FlightAware UK
Fri 10:11:49 PM 50.3912 -4.6631 108° East 468 539 35,500 4,737 Level FlightAware UK
Fri 10:11:50 PM 50.3905 -4.6619 108° East 483 556 37,000  Climbing FlightAware ADS-B
Fri 10:12:07 PM 50.3787 -4.6037 108° East 466 536 35,500  Descending FlightAware UK
Fri 10:12:20 PM 50.3692 -4.5602 108° East 479 551 37,000  Climbing FlightAware ADS-B
Fri 10:12:37 PM 50.3579 -4.5051 108° East 468 539 35,500  Descending FlightAware UK
Fri 10:12:51 PM 50.3481 -4.4595 108° East 478 550 37,000  Climbing FlightAware ADS-B
Fri 10:13:07 PM 50.3371 -4.4069 108° East 468 539 35,500  Descending FlightAware UK
Fri 10:13:24 PM 50.3256 -4.3534 108° East 476 548 37,000  Climbing FlightAware ADS-B
Fri 10:13:49 PM 50.3080 -4.2696 108° East 466 536 35,500  Descending FlightAware UK
Fri 10:13:57 PM 50.3027 -4.2459 108° East 474 545 37,000  Climbing FlightAware ADS-B
Fri 10:14:13 PM 50.2913 -4.1912 108° East 468 539 35,500  Descending FlightAware UK
Fri 10:14:28 PM 50.2811 -4.1450 108° East 472 543 37,000  Climbing FlightAware ADS-B
Fri 10:14:44 PM 50.2705 -4.0937 108° East 464 534 35,500 -2,647 Descending FlightAware UK
Fri 10:15:02 PM 50.2579 -4.0357 109° East 462 532 35,500 3,214 Level FlightAware UK
Fri 10:15:12 PM 50.2506 -4.0032 109° East 471 542 37,000  Climbing FlightAware ADS-B
Fri 10:15:32 PM 50.2371 -3.9393 109° East 464 534 35,500  Descending FlightAware UK
Fri 10:15:52 PM 50.2270 -3.8950 109° East 469 540 37,000  Climbing FlightAware ADS-B
Fri 10:16:08 PM 50.2119 -3.8229 109° East 466 536 35,500 -2,647 Descending FlightAware UK
Fri 10:16:26 PM 50.1993 -3.7651 109° East 466 536 35,500 3,750 Level FlightAware UK
Fri 10:16:32 PM 50.1980 -3.7580 109° East 468 539 37,000  Climbing FlightAware ADS-B
Fri 10:16:50 PM 50.1825 -3.6882 109° East 466 536 35,500 -2,143 Descending FlightAware UK
Fri 10:17:14 PM 50.1658 -3.6115 109° East 466 536 35,500 3,333 Level FlightAware UK
Fri 10:17:17 PM 50.1650 -3.6110 109° East 466 536 37,000  Climbing FlightAware ADS-B
Fri 10:17:32 PM 50.1531 -3.5542 109° East 466 536 35,500 -2,308 Descending FlightAware UK
Fri 10:17:56 PM 50.1362 -3.4779 109° East 468 539 35,500 3,600 Level FlightAware UK
Fri 10:17:57 PM 50.1380 -3.4870 109° East 463 533 37,000  Climbing FlightAware ADS-B
Fri 10:18:14 PM 50.1236 -3.4209 109° East 464 534 35,500  Descending FlightAware UK
Fri 10:18:35 PM 50.1091 -3.3572 109° East 463 533 37,000  Climbing FlightAware ADS-B
Fri 10:18:50 PM 50.0984 -3.3079 109° East 464 534 35,500  Descending FlightAware UK
Fri 10:19:07 PM 50.0863 -3.2551 109° East 460 529 37,000  Climbing FlightAware ADS-B
Fri 10:19:26 PM 50.0735 -3.1964 109° East 464 534 35,500  Descending FlightAware UK
Fri 10:19:38 PM 50.0651 -3.1604 109° East 459 528 37,000  Climbing FlightAware ADS-B
Fri 10:19:55 PM 50.0527 -3.1038 109° East 462 532 35,500  Descending FlightAware UK
Fri 10:20:08 PM 50.0435 -3.0647 109° East 457 526 37,000 -162 Climbing FlightAware ADS-B
Fri 10:20:32 PM 50.0273 -2.9920 109° East 460 529 35,400  Descending FlightAware UK
Fri 10:20:42 PM 50.0198 -2.9604 109° East 456 525 37,000  Climbing FlightAware ADS-B
Fri 10:21:02 PM 50.0061 -2.8990 109° East 458 527 35,400  Descending FlightAware UK
Fri 10:21:17 PM 49.9953 -2.8528 109° East 455 524 37,000  Climbing FlightAware ADS-B
Fri 10:21:32 PM 49.9848 -2.8058 109° East 454 522 35,400 -2,727 Descending FlightAware UK
Fri 10:21:50 PM 49.9726 -2.7523 110° East 456 525 35,500 4,174 Climbing FlightAware UK
Fri 10:21:55 PM 49.9684 -2.7348 110° East 457 526 37,000  Climbing FlightAware ADS-B
Fri 10:22:14 PM 49.9557 -2.6778 110° East 456 525 35,500  Descending FlightAware UK
Fri 10:22:26 PM 49.9469 -2.6411 110° East 461 531 37,000  Climbing FlightAware ADS-B
Fri 10:22:44 PM 49.9342 -2.5852 110° East 458 527 35,500  Descending FlightAware UK
Fri 10:22:57 PM 49.9246 -2.5446 110° East 463 533 37,000  Climbing FlightAware ADS-B
Fri 10:23:14 PM 49.9125 -2.4918 110° East 462 532 35,500  Descending FlightAware UK
Fri 10:23:28 PM 49.9023 -2.4484 110° East 462 532 37,000 -200 Climbing FlightAware ADS-B
Fri 10:23:44 PM 49.8904 -2.3966 110° East 462 532 35,400  Descending FlightAware UK
Fri 10:23:58 PM 49.8804 -2.3545 110° East 462 532 37,000  Climbing FlightAware ADS-B
Fri 10:24:14 PM 49.8684 -2.3025 110° East 464 534 35,400  Descending FlightAware UK
Fri 10:24:30 PM 49.8571 -2.2549 110° East 462 532 37,000  Climbing FlightAware ADS-B
Fri 10:24:50 PM 49.8423 -2.1914 110° East 466 536 35,400  Descending FlightAware UK
Fri 10:25:02 PM 49.8340 -2.1567 110° East 462 532 37,000  Climbing FlightAware ADS-B
Fri 10:25:21 PM 49.8202 -2.0974 110° East 462 532 35,400  Descending FlightAware UK
Fri 10:25:32 PM 49.8118 -2.0625 110° East 462 532 37,000  Climbing FlightAware ADS-B
Fri 10:25:50 PM 49.7985 -2.0059 110° East 462 532 35,400  Descending FlightAware UK
Fri 10:26:03 PM 49.7889 -1.9659 110° East 463 533 37,000  Climbing FlightAware ADS-B
Fri 10:26:21 PM 49.7761 -1.9120 110° East 464 534 35,400  Descending FlightAware UK
Fri 10:26:34 PM 49.7663 -1.8710 110° East 463 533 37,000  Climbing FlightAware ADS-B
Fri 10:26:51 PM 49.7538 -1.8185 110° East 460 529 35,400  Descending FlightAware UK
Fri 10:27:05 PM 49.7436 -1.7761 110° East 467 537 37,000  Climbing FlightAware ADS-B
Fri 10:27:20 PM 49.7319 -1.7275 110° East 462 532 35,400  Descending FlightAware UK
Fri 10:27:36 PM 49.7200 -1.6779 110° East 470 541 37,000  Climbing FlightAware ADS-B
Fri 10:27:57 PM 49.7045 -1.6134 110° East 464 534 35,400  Descending FlightAware UK
Fri 10:28:07 PM 49.6966 -1.5811 110° East 472 543 37,000  Climbing FlightAware ADS-B
Fri 10:28:27 PM 49.6815 -1.5185 110° East 462 532 35,400  Descending FlightAware UK
Fri 10:28:37 PM 49.6731 -1.4841 110° East 474 545 37,000  Climbing FlightAware ADS-B
Fri 10:29:03 PM 49.6538 -1.4046 110° East 464 534 35,400  Descending FlightAware UK
Fri 10:29:08 PM 49.6498 -1.3885 110° East 477 549 37,000  Climbing FlightAware ADS-B
Fri 10:29:27 PM 49.6349 -1.3274 110° East 468 539 35,400  Descending FlightAware UK
Fri 10:29:38 PM 49.6262 -1.2921 110° East 478 550 37,000  Climbing FlightAware ADS-B
Fri 10:29:57 PM 49.6117 -1.2330 110° East 470 541 35,400  Descending FlightAware UK
Fri 10:30:08 PM 49.6025 -1.1958 110° East 478 550 37,000  Climbing FlightAware ADS-B
Fri 10:30:33 PM 49.5836 -1.1185 110° East 476 548 35,400  Descending FlightAware UK
Fri 10:30:39 PM 49.5783 -1.0977 110° East 479 551 37,000  Climbing FlightAware ADS-B
Fri 10:30:57 PM 49.5646 -1.0423 110° East 480 552 35,400  Descending FlightAware UK
Fri 10:31:11 PM 49.5535 -0.9980 110° East 476 548 37,000  Climbing FlightAware ADS-B
Fri 10:31:27 PM 49.5409 -0.9474 110° East 476 548 35,400  Descending FlightAware UK
Fri 10:31:41 PM 49.5298 -0.9025 110° East 472 543 37,000  Climbing FlightAware ADS-B
Fri 10:31:57 PM 49.5174 -0.8530 110° East 474 545 35,400 -3,000 Descending FlightAware UK
Fri 10:32:15 PM 49.5030 -0.7954 111° Southeast 472 543 35,300 -1,000 Descending FlightAware UK
Fri 10:32:33 PM 49.4895 -0.7414 111° Southeast 474 545 34,800 1,556 Descending FlightAware UK
Fri 10:32:42 PM 49.4840 -0.7180 111° Southeast 464 534 36,000 -2,750 Climbing FlightAware ADS-B
Fri 10:32:57 PM 49.4707 -0.6678 111° Southeast 482 555 33,700 -5,091 Descending FlightAware UK
Fri 10:33:15 PM 49.4566 -0.6121 111° Southeast 472 543 33,200 1,920 Descending FlightAware UK
Fri 10:33:22 PM 49.4520 -0.5960 111° Southeast 454 522 34,500 -3,000 Climbing FlightAware ADS-B
Fri 10:33:39 PM 49.4385 -0.5410 111° Southeast 460 529 32,000 -3,300 Descending FlightAware UK
Fri 10:34:02 PM 49.4220 -0.4730 111° Southeast 461 531 32,300 -3,500 Climbing FlightAware ADS-B
Fri 10:34:03 PM 49.4203 -0.4678 111° Southeast 470 541 30,600 -8,526 Descending FlightAware UK
Fri 10:34:21 PM 49.4068 -0.4142 111° Southeast 476 548 29,600 -3,333 Descending FlightAware UK
Fri 10:34:39 PM 49.3954 -0.3571 107° East 476 548 28,600 462 Descending FlightAware UK
Fri 10:34:47 PM 49.3930 -0.3410 107° East 457 526 29,800 -3,250 Climbing FlightAware ADS-B
Fri 10:35:03 PM 49.3849 -0.2808 107° East 470 541 27,300 -5,471 Descending FlightAware UK
Fri 10:35:21 PM 49.3809 -0.2250 96° East 462 532 26,700 2,000 Descending FlightAware UK
Fri 10:35:27 PM 49.3810 -0.2130 96° East 437 503 28,100 -2,250 Climbing FlightAware ADS-B
Fri 10:35:45 PM 49.3782 -0.1522 96° East 454 522 25,800 -2,400 Descending FlightAware UK
Fri 10:36:07 PM 49.3760 -0.0920 94° East 429 494 26,500 -2,750 Climbing FlightAware ADS-B
Fri 10:36:09 PM 49.3750 -0.0772 94° East 450 518 24,700 -7,500 Descending FlightAware UK
Fri 10:36:27 PM 49.3728 -0.0230 94° East 442 509 24,000 -2,500 Descending FlightAware UK
Fri 10:36:45 PM 49.3706 0.0304 94° East 436 502 23,200 1,200 Descending FlightAware UK
Fri 10:36:52 PM 49.3700 0.0480 94° East 421 484 24,500 -2,600 Climbing FlightAware ADS-B
Fri 10:37:15 PM 49.3671 0.1206 94° East 432 497 21,900 -2,400 Descending FlightAware UK
Fri 10:37:32 PM 49.3650 0.1670 93° East 414 476 22,900 -2,000 Climbing FlightAware ADS-B
Fri 10:37:33 PM 49.3651 0.1721 93° East 430 495 21,300 -7,263 Descending FlightAware UK
Fri 10:37:51 PM 49.3630 0.2236 93° East 422 486 20,600 -2,500 Descending FlightAware UK
Fri 10:38:09 PM 49.3609 0.2757 94° East 422 486 19,800 1,385 Descending FlightAware UK
Fri 10:38:17 PM 49.3600 0.2930 94° East 405 466 21,200 -2,000 Climbing FlightAware ADS-B
Fri 10:38:33 PM 49.3581 0.3455 94° East 418 481 19,000 -5,118 Descending FlightAware UK
Fri 10:38:51 PM 49.3559 0.3957 94° East 414 476 18,300 1,750 Descending FlightAware UK
Fri 10:38:57 PM 49.3560 0.4060 94° East 395 455 19,700 -2,000 Climbing FlightAware ADS-B
Fri 10:39:15 PM 49.3530 0.4630 94° East 410 472 17,500 -4,833 Descending FlightAware UK
Fri 10:39:33 PM 49.3509 0.5111 94° East 404 465 16,800 1,333 Descending FlightAware UK
Fri 10:39:42 PM 49.3500 0.5310 94° East 385 443 18,100 -1,920 Climbing FlightAware ADS-B
Fri 10:39:58 PM 49.3479 0.5780 94° East 402 463 16,000 -4,727 Descending FlightAware UK
Fri 10:40:15 PM 49.3459 0.6254 94° East 396 456 15,500 2,000 Descending FlightAware UK
Fri 10:40:22 PM 49.3450 0.6400 94° East 374 430 16,800 -2,000 Climbing FlightAware ADS-B
Fri 10:40:39 PM 49.3430 0.6884 94° East 388 447 14,700 -4,500 Descending FlightAware UK
Fri 10:40:58 PM 49.3408 0.7367 94° East 386 444 14,100 2,348 Descending FlightAware UK
Fri 10:41:02 PM 49.3410 0.7440 94° East 367 422 15,600 -1,826 Climbing FlightAware ADS-B
Fri 10:41:21 PM 49.3380 0.7978 94° East 384 442 13,400 -4,541 Descending FlightAware UK
Fri 10:41:39 PM 49.3361 0.8433 94° East 378 435 12,800 1,846 Descending FlightAware UK
Fri 10:41:47 PM 49.3350 0.8580 94° East 359 413 14,200 -1,833 Climbing FlightAware ADS-B
Fri 10:42:15 PM 49.3317 0.9331 94° East 372 428 11,700 -1,543 Descending FlightAware UK
Fri 10:42:22 PM 49.3320 0.9310 94° East 355 409 13,300 -1,500 Climbing FlightAware ADS-B
Fri 10:42:39 PM 49.3288 0.9942 94° East 368 423 11,100 -4,286 Descending FlightAware UK
Fri 10:42:57 PM 49.3266 1.0393 94° East 366 421 10,800 3,130 Descending FlightAware UK
Fri 10:43:02 PM 49.3270 1.0410 94° East 354 407 12,300 -800 Climbing FlightAware ADS-B
Fri 10:43:27 PM 49.3230 1.1144 94° East 364 419 10,400 -2,694 Descending FlightAware UK
Fri 10:43:51 PM 49.3202 1.1741 94° East 362 417 10,100 3,120 Descending FlightAware UK
Fri 10:43:52 PM 49.3210 1.1590 94° East 351 404 11,700 -667 Climbing FlightAware ADS-B
Fri 10:44:09 PM 49.3181 1.2188 94° East 360 414 9,900 -3,500 Descending FlightAware UK
Fri 10:44:28 PM 49.3159 1.2645 94° East 358 412 9,600 -811 Descending FlightAware UK
Fri 10:44:46 PM 49.3135 1.3099 95° East 356 410 9,400 1,941 Descending FlightAware UK
Fri 10:45:02 PM 49.3060 1.3340 117° Southeast 356 410 10,700 -1,000 Climbing FlightAware ADS-B
Fri 10:45:04 PM 49.3003 1.3495 117° Southeast 358 412 9,100 -800 Descending FlightAware UK
Fri 10:45:17 PM 49.2890 1.3710 125° Southeast 361 415 10,500 -800 Climbing FlightAware ADS-B
Fri 10:45:34 PM 49.2645 1.4037 125° Southeast 356 410 8,700 -3,257 Descending FlightAware UK
Fri 10:45:52 PM 49.2420 1.4325 140° Southeast 344 396 8,600 3,652 Descending FlightAware UK
Fri 10:45:57 PM 49.2390 1.4380 140° Southeast 346 398 10,100 -400 Climbing FlightAware ADS-B
Fri 10:46:22 PM 49.2068 1.4788 140° Southeast 316 364 8,400 -240 Descending FlightAware UK
Fri 10:46:22 PM 49.2110 1.4740 140° Southeast 324 373 10,000  Climbing FlightAware ADS-B
Fri 10:46:40 PM 49.1867 1.5048 140° Southeast 316 364 8,400 -2,500 Descending FlightAware UK
Fri 10:46:58 PM 49.1684 1.5291 139° Southeast 1 1 8,500 3,556 Climbing FlightAware UK
Fri 10:47:07 PM 49.1610 1.5380 139° Southeast 292 336 10,000  Climbing FlightAware ADS-B
Fri 10:47:22 PM 49.1439 1.5610 139° Southeast 284 327 8,500  Descending FlightAware UK
Fri 10:47:32 PM 49.1380 1.5690 139° Southeast 290 334 10,000  Climbing FlightAware ADS-B
Fri 10:47:51 PM 49.1136 1.5999 139° Southeast 284 327 8,500 -2,432 Descending FlightAware UK
Fri 10:48:09 PM 49.0949 1.6242 140° Southeast 286 329 8,500 2,727 Level FlightAware UK
Fri 10:48:24 PM 49.0794 1.6438 140° Southeast 292 336 10,000 -800 Climbing FlightAware ADS-B
Fri 10:48:39 PM 49.0638 1.6640 140° Southeast 284 327 8,100 -1,500 Descending FlightAware UK
Fri 10:48:48 PM 49.0556 1.6743 140° Southeast 288 331 9,400 -1,500 Climbing FlightAware ADS-B
Fri 10:49:03 PM 49.0392 1.6953 140° Southeast 282 325 7,500 -4,182 Descending FlightAware UK
Fri 10:49:21 PM 49.0209 1.7188 140° Southeast 282 325 7,100 1,231 Descending FlightAware UK
Fri 10:49:42 PM 49.0030 1.7420 140° Southeast 283 326 8,300 783 Climbing FlightAware ADS-B
Fri 10:50:07 PM 48.9830 1.7820 127° Southeast 274 315 7,700 -1,421 Descending FlightAware ADS-B
Fri 10:50:20 PM 48.9735 1.8046 123° Southeast 272 313 7,400 -1,421 Descending FlightAware ADS-B
Fri 10:50:45 PM 48.9580 1.8463 119° Southeast 265 305 6,800 -1,400 Descending FlightAware ADS-B
Fri 10:50:50 PM 48.9567 1.8539 105° East 264 304 6,700 -1,500 Descending FlightAware ADS-B
Fri 10:50:53 PM 48.9563 1.8595 96° East 261 300 6,600 -2,000 Descending FlightAware ADS-B
Fri 10:50:56 PM 48.9563 1.8651 90° East 258 297 6,500 -1,500 Descending FlightAware ADS-B
Fri 10:51:01 PM 48.9568 1.8735 85° East 256 295 6,400 -621 Descending FlightAware ADS-B
Fri 10:51:25 PM 48.9596 1.9162 84° East 251 289 6,200 -414 Descending FlightAware ADS-B
Fri 10:51:30 PM 48.9600 1.9233 85° East 240 276 6,200 -900 Level FlightAware ADS-B
Fri 10:51:45 PM 48.9616 1.9486 84° East 236 272 5,900 -1,200 Descending FlightAware ADS-B
Fri 10:52:00 PM 48.9631 1.9740 85° East 235 270 5,600 -1,161 Descending FlightAware ADS-B
Fri 10:52:16 PM 48.9646 1.9997 85° East 234 269 5,300 -1,161 Descending FlightAware ADS-B
Fri 10:52:31 PM 48.9661 2.0244 85° East 234 269 5,000 -1,200 Descending FlightAware ADS-B
Fri 10:52:46 PM 48.9675 2.0491 85° East 233 268 4,700 -800 Descending FlightAware ADS-B
Fri 10:53:01 PM 48.9689 2.0738 85° East 229 264 4,600 -200 Descending FlightAware ADS-B
Fri 10:53:16 PM 48.9703 2.0967 85° East 209 241 4,600  Level FlightAware ADS-B
Fri 10:53:32 PM 48.9716 2.1182 85° East 201 231 4,600  Level FlightAware ADS-B
Fri 10:53:47 PM 48.9728 2.1392 85° East 200 230 4,600  Level FlightAware ADS-B
Fri 10:54:02 PM 48.9740 2.1604 85° East 200 230 4,600  Level FlightAware ADS-B
Fri 10:54:17 PM 48.9752 2.1814 85° East 199 229 4,600  Level FlightAware ADS-B
Fri 10:54:32 PM 48.9763 2.2024 85° East 193 222 4,600 -222 Level FlightAware ADS-B
Fri 10:54:44 PM 48.9773 2.2183 85° East 201 231 4,500 -889 Descending FlightAware ADS-B
Fri 10:54:59 PM 48.9785 2.2399 85° East 203 234 4,200 -1,161 Descending FlightAware ADS-B
Fri 10:55:15 PM 48.9797 2.2619 85° East 200 230 3,900 -1,200 Descending FlightAware ADS-B
Fri 10:55:29 PM 48.9809 2.2823 85° East 198 228 3,600 -1,154 Descending FlightAware ADS-B
Fri 10:55:41 PM 48.9817 2.2977 85° East 196 226 3,400 -857 Descending FlightAware ADS-B
Fri 10:55:50 PM 48.9825 2.3102 84° East 196 226 3,300 -1,000 Descending FlightAware ADS-B
Fri 10:55:59 PM 48.9831 2.3226 86° East 193 222 3,100 -1,304 Descending FlightAware ADS-B
Fri 10:56:13 PM 48.9841 2.3416 85° East 190 219 2,800 -1,200 Descending FlightAware ADS-B
Fri 10:56:29 PM 48.9853 2.3622 85° East 183 211 2,500 -960 Descending FlightAware ADS-B
Fri 10:56:38 PM 48.9859 2.3740 86° East 179 206 2,400 -947 Descending FlightAware ADS-B
Fri 10:56:48 PM 48.9866 2.3865 85° East 177 204 2,200 -947 Descending FlightAware ADS-B
Fri 10:56:57 PM 48.9872 2.3976 85° East 177 204 2,100 -706 Descending FlightAware ADS-B
Fri 10:57:05 PM 48.9878 2.4070 84° East 172 198 2,000 -1,143 Descending FlightAware ADS-B
Fri 10:57:18 PM 48.9887 2.4226 85° East 172 198 1,700 -1,333 Descending FlightAware ADS-B
Fri 10:57:23 PM 48.9891 2.4283 84° East 173 199 1,600 -750 Descending FlightAware ADS-B
Fri 10:57:26 PM 48.9893 2.4323 86° East 173 199 1,600 -600 Level FlightAware ADS-B
Fri 10:57:33 PM 48.9897 2.4408 86° East 170 196 1,500 -800 Descending FlightAware ADS-B
Fri 10:57:41 PM 48.9901 2.4501 86° East 168 193 1,400 -1,125 Descending FlightAware ADS-B
Fri 10:57:49 PM 48.9906 2.4598 85° East 159 183 1,200 -1,200 Descending FlightAware ADS-B
Fri 10:58:01 PM 48.9913 2.4724 85° East 153 176 1,000 -947 Descending FlightAware ADS-B
Fri 10:58:08 PM 48.9918 2.4800 84° East 149 171 900 -783 Descending FlightAware ADS-B
Fri 10:58:24 PM 48.9927 2.4958 85° East 144 166 700 -692 Descending FlightAware ADS-B
Fri 10:58:34 PM 48.9932 2.5063 86° East 144 166 600 -857 Descending FlightAware ADS-B
Fri 10:58:45 PM 48.9938 2.5173 85° East 144 166 400 -1,059 Descending FlightAware ADS-B
Fri 10:58:51 PM 48.9941 2.5237 86° East 145 167 300 -462 Descending FlightAware ADS-B
Fri 10:58:58 PM 48.9945 2.5307 85° East 146 168 300 -800 Level FlightAware ADS-B
Fri 10:59:06 PM 48.9949 2.5389 86° East 147 169 100 -1,500 Descending FlightAware ADS-B

Login

Don't have an account? Register now (free) for customized features, flight alerts, and more!